x

Buoy I01 - Eastern Maine Shelf (44034) Wave Buoy

8:04 - Tue 6th Dec 2016 All times are EST. -5 hours from GMT.

  • Sig Wave height 2.6ft
  • Peak Period 4s
  • Wind
    22mph, 27mph gusts
  • Sea Temp 50°f
  • Luft Temp 32°f
  • Sea Pressure 1018.1mb
  • Buoy I01 - Eastern Maine Shelf
  • Buoy I01 - Eastern Maine Shelf

More Historic Weather Station data

Upgrade to MSW Pro to gain access to the past 30 days of data for over 8000 Wavebouys and Weather Stations around the globe.

Join Pro

Comparision Forecast

View Surf forecast
   
Di 12/06 8:04 2.5ft 4s 22 27 mph 1018.1mb 50f 32f
7:04 2.5ft 4s 18 22 mph 1017.6mb 50f 33f
6:04 3ft 3s 22 27 mph 1016.3mb 50f 34f
5:04 3ft 4s 20 25 mph 1015.5mb 50f 34f
4:04 3ft 3s 18 20 mph 1014.8mb 51f 35f
3:04 3.5ft 4s 20 25 mph 1014.2mb 51f 35f
2:04 3.5ft 4s 22 27 mph 1013mb 51f 36f
1:04 3.5ft 4s 25 29 mph 1011.8mb 51f 35f
12:04 3ft 5s 25 27 mph 1010.5mb 51f 36f
Mo 12/05 11:04 3.5ft 5s 13 18 mph 1009.8mb 51f 42f
10:04 2.5ft 4s 16 18 mph 1010.5mb 51f 40f
9:04 2.5ft 4s 18 20 mph 1010.4mb 51f 41f
8:04 2.5ft 4s 18 20 mph 1011mb 51f 40f
7:04 1.6ft 3s 18 22 mph 1011.9mb 51f 39f
6:04 1.3ft 3s 16 18 mph 1012.9mb 51f 38f
5:04 1ft 3s 13 18 mph 1013.3mb 50f 37f
4:04 1ft 2s 11 13 mph 1013.7mb 50f 36f
3:04 1.3ft 8s 13 16 mph 1013.4mb 50f 37f
2:04 1.3ft 8s 9 11 mph 1014.3mb 50f 35f
1:04 1.3ft 8s 7 9 mph 1015mb 50f 34f
12:04 1.6ft 11s 7 13 mph 1016.2mb 50f 33f
11:04 1.3ft 8s 2
mph
1017.6mb 50f 32f
10:04 1.3ft 8s 4 7 mph 1018.4mb 50f 31f
9:04 1.6ft 4s 9 13 mph 1018.6mb 50f 31f
8:04 1.3ft 3s 7 9 mph 1019.7mb 50f 31f
7:04 1.3ft 4s 9 13 mph 1019.4mb 50f 31f
6:04 1.3ft 4s 7 11 mph 1020.3mb 50f 30f
5:04 1.3ft 3s 7 9 mph 1019.9mb 50f 30f
4:04 1.6ft 4s 13 18 mph 1019.1mb 50f 30f
3:04 1.6ft 3s 11 16 mph 1019.9mb 50f 31f
2:04 2ft 3s 16 20 mph 1019.9mb 50f 31f
1:04 2ft 4s 13 18 mph 1020.4mb 50f 32f
12:04 2ft 4s 13 20 mph 1020.7mb 50f 32f
So 12/04 11:04 2.5ft 4s 16 20 mph 1021mb 50f 32f
10:04 2.5ft 4s 16 22 mph 1021.2mb 50f 32f
9:04 2.5ft 4s 18 22 mph 1020.8mb 50f 33f
8:04 2.5ft 3s 18 22 mph 1021.3mb 50f 33f
7:04 2.5ft 4s 16 20 mph 1021.3mb 50f 33f
6:04 2.5ft 4s 18 22 mph 1020.7mb 50f 34f
5:04 2.5ft 4s 20 25 mph 1020mb 50f 35f
4:04 2.5ft 3s 20 27 mph 1019.6mb 50f 35f
3:04 2.5ft 3s 18 22 mph 1018.8mb 50f 35f
2:04 2.5ft 4s 16 20 mph 1018.3mb 50f 35f
1:04 2.5ft 4s 20 25 mph 1018mb 50f 35f
12:04 3ft 4s 18 22 mph 1018.1mb 50f 35f
11:04 3.5ft 4s 20 27 mph 1018mb 50f 35f
10:04 3ft 4s 22 27 mph 1018.3mb 50f 35f
9:04 3ft 4s 20 27 mph 1018.3mb 50f 35f
8:04 3ft 4s 20 27 mph 1018mb 50f 35f
7:04 3.5ft 4s 22 27 mph 1017.5mb 50f 35f
6:04 3ft 4s 22 27 mph 1016.9mb 50f 35f
5:04 3ft 4s 20 27 mph 1016.1mb 51f 35f
4:04 3.5ft 4s 20 27 mph 1015.8mb 51f 35f
3:04 4ft 5s 25 29 mph 1015.3mb 51f 35f
2:04 3.5ft 5s 25 34 mph 1015mb 51f 35f
1:04 3.5ft 4s 25 29 mph 1014.2mb 51f 36f
12:04 4ft 4s 25 29 mph 1013.8mb 51f 37f
Sa 12/03 11:04 3.5ft 5s 25 29 mph 1013.2mb 51f 37f
10:04 3.5ft 4s 22 27 mph 1013mb 51f 37f
9:04 3.5ft 5s 25 31 mph 1012.5mb 51f 38f
8:04 3.5ft 4s 25 31 mph 1012.2mb 50f 38f
7:04 3.5ft 4s 25 29 mph 1011.6mb 51f 38f
6:04 3.5ft 4s 25 31 mph 1011mb 51f 38f
5:04 3ft 4s 22 29 mph 1010mb 51f 39f
4:04 3.5ft 4s 25 31 mph 1008.9mb 51f 39f
3:04 3.5ft 4s 22 27 mph 1008.2mb 51f 39f
2:04 3.5ft 5s 22 27 mph 1007.3mb 51f 39f
1:04 4.5ft 4s 25 29 mph 1006.5mb 51f 40f
12:04 4ft 6s 20 25 mph 1006.1mb 51f 40f
11:04 4.5ft 4s 20 25 mph 1005.7mb 51f 40f
10:04 4.5ft 6s 20 25 mph 1005.5mb 51f 40f
9:04 4.5ft 6s 20 27 mph 1004.7mb 51f 40f
8:04 4.5ft 6s 20 27 mph 1004.3mb 51f 40f
7:04 4.5ft 6s 22 27 mph 1003.7mb 51f 41f
6:04 4ft 6s 20 25 mph 1003.2mb 51f 42f
5:04 4.5ft 6s 20 25 mph 1002.7mb 51f 42f
4:04 4.5ft 6s 20 25 mph 1002.4mb 51f 42f
3:04 4ft 6s 18 20 mph 1002.3mb 51f 42f
2:04 4.5ft 8s 20 27 mph 1002.2mb 51f 41f
1:04 4.5ft 6s 16 20 mph 1001.9mb 51f 43f
12:04 4.5ft 8s 18 22 mph 1002mb 51f 43f
Fr 12/02 11:04 4.5ft 8s 20 22 mph 1001.9mb 51f 47f
10:04 4.5ft 8s 13 16 mph 1002.1mb 51f 47f
9:04 4.5ft 8s 11 16 mph 1002.5mb 51f 47f
8:04 4.5ft 8s 9 11 mph 1002.9mb 51f 48f
7:04 4.5ft 11s 4 7 mph 1003.4mb 51f 47f
6:04 4.5ft 11s 13 16 mph 1003.6mb 51f 47f
5:04 5ft 8s 9 11 mph 1003.9mb 51f 47f
3:04 5.5ft 6s 13 16 mph 1003.6mb 51f 48f